TUN weather

Tunis Carthage International Airport
Tunis, Tunis Governorate, Tunisia

Public forecast

Using degrees Celsius for public forecast. Weather courtesy of forecast.io.

METAR (pilot weather report)

Retrieved 2018/09/22 16:30 UTC (21 minutes ago):

DTTA 221630Z 31017KT 9999 SCT023 26/20 Q1016 NOSIG

TAF (pilot weather forecast)

Retrieved 2018/09/22 12:27 UTC (4 hours ago):

TAF DTTA 221100Z 2212/2312 30015G25KT 7000 -TSRA SCT023TCU FEW030CB FM222000 9999 SCT026